sensor_id;sensor_type;location;lat;lon;timestamp;pressure;altitude;pressure_sealevel;temperature;humidity
21236;BME280;10775;42.678;26.324;2023-04-30T00:00:39;98437.34;;;10.80;91.68
21236;BME280;10775;42.678;26.324;2023-04-30T00:03:05;98427.63;;;10.85;92.36
21236;BME280;10775;42.678;26.324;2023-04-30T00:05:30;98430.22;;;10.87;88.71
21236;BME280;10775;42.678;26.324;2023-04-30T00:07:56;98432.03;;;10.83;91.60
21236;BME280;10775;42.678;26.324;2023-04-30T00:10:21;98433.13;;;10.75;92.10
21236;BME280;10775;42.678;26.324;2023-04-30T00:12:47;98431.63;;;10.64;89.04
21236;BME280;10775;42.678;26.324;2023-04-30T00:15:12;98427.69;;;10.48;91.52
21236;BME280;10775;42.678;26.324;2023-04-30T00:17:37;98426.75;;;10.51;92.24
21236;BME280;10775;42.678;26.324;2023-04-30T00:20:03;98429.47;;;10.46;91.53
21236;BME280;10775;42.678;26.324;2023-04-30T00:22:29;98423.22;;;10.52;94.07
21236;BME280;10775;42.678;26.324;2023-04-30T00:24:54;98424.75;;;10.60;93.77
21236;BME280;10775;42.678;26.324;2023-04-30T00:27:20;98420.41;;;10.61;91.73
21236;BME280;10775;42.678;26.324;2023-04-30T00:29:45;98418.06;;;10.49;91.98
21236;BME280;10775;42.678;26.324;2023-04-30T00:32:11;98414.47;;;10.53;93.41
21236;BME280;10775;42.678;26.324;2023-04-30T00:34:36;98405.22;;;10.39;89.93
21236;BME280;10775;42.678;26.324;2023-04-30T00:37:02;98414.22;;;10.24;88.80
21236;BME280;10775;42.678;26.324;2023-04-30T00:39:27;98412.63;;;10.17;94.90
21236;BME280;10775;42.678;26.324;2023-04-30T00:41:53;98402.59;;;9.99;91.41
21236;BME280;10775;42.678;26.324;2023-04-30T00:44:18;98403.59;;;9.95;94.32
21236;BME280;10775;42.678;26.324;2023-04-30T00:46:44;98402.75;;;9.93;90.42
21236;BME280;10775;42.678;26.324;2023-04-30T00:49:09;98399.88;;;10.05;94.92
21236;BME280;10775;42.678;26.324;2023-04-30T00:51:35;98397.88;;;10.16;94.08
21236;BME280;10775;42.678;26.324;2023-04-30T00:54:05;98402.84;;;10.27;93.64
21236;BME280;10775;42.678;26.324;2023-04-30T00:56:31;98394.94;;;10.32;94.64
21236;BME280;10775;42.678;26.324;2023-04-30T00:58:57;98392.38;;;10.27;90.11
21236;BME280;10775;42.678;26.324;2023-04-30T01:01:26;98390.78;;;10.21;93.71
21236;BME280;10775;42.678;26.324;2023-04-30T01:03:55;98385.41;;;10.31;93.58
21236;BME280;10775;42.678;26.324;2023-04-30T01:06:21;98389.72;;;10.30;90.92
21236;BME280;10775;42.678;26.324;2023-04-30T01:08:47;98396.19;;;10.14;91.13
21236;BME280;10775;42.678;26.324;2023-04-30T01:16:23;98379.16;;;9.97;91.77
21236;BME280;10775;42.678;26.324;2023-04-30T01:19:57;98384.72;;;9.82;92.58
21236;BME280;10775;42.678;26.324;2023-04-30T01:21:59;98375.47;;;10.05;95.00
21236;BME280;10775;42.678;26.324;2023-04-30T01:24:52;98373.63;;;10.10;96.34
21236;BME280;10775;42.678;26.324;2023-04-30T01:30:02;98373.34;;;10.22;92.53
21236;BME280;10775;42.678;26.324;2023-04-30T01:32:29;98372.84;;;10.08;88.76
21236;BME280;10775;42.678;26.324;2023-04-30T01:34:54;98367.69;;;10.03;90.38
21236;BME280;10775;42.678;26.324;2023-04-30T01:38:14;98370.34;;;10.01;87.97
21236;BME280;10775;42.678;26.324;2023-04-30T01:41:46;98373.00;;;10.00;92.94
21236;BME280;10775;42.678;26.324;2023-04-30T01:46:30;98380.28;;;9.84;89.14
21236;BME280;10775;42.678;26.324;2023-04-30T01:49:18;98371.66;;;9.82;93.53
21236;BME280;10775;42.678;26.324;2023-04-30T01:51:59;98375.91;;;9.86;89.30
21236;BME280;10775;42.678;26.324;2023-04-30T01:54:51;98377.81;;;9.78;86.77
21236;BME280;10775;42.678;26.324;2023-04-30T01:57:26;98367.81;;;9.97;91.80
21236;BME280;10775;42.678;26.324;2023-04-30T01:59:53;98374.28;;;9.82;92.72
21236;BME280;10775;42.678;26.324;2023-04-30T02:02:18;98372.25;;;9.93;93.89
21236;BME280;10775;42.678;26.324;2023-04-30T02:04:44;98365.19;;;9.98;92.13
21236;BME280;10775;42.678;26.324;2023-04-30T02:07:10;98362.31;;;10.09;90.07
21236;BME280;10775;42.678;26.324;2023-04-30T02:09:36;98356.31;;;10.06;91.42
21236;BME280;10775;42.678;26.324;2023-04-30T02:12:02;98364.91;;;10.11;94.15
21236;BME280;10775;42.678;26.324;2023-04-30T02:14:30;98354.19;;;10.23;93.96
21236;BME280;10775;42.678;26.324;2023-04-30T02:16:55;98358.59;;;10.21;91.31
21236;BME280;10775;42.678;26.324;2023-04-30T02:19:21;98363.06;;;10.16;91.61
21236;BME280;10775;42.678;26.324;2023-04-30T02:21:46;98358.69;;;10.16;93.61
21236;BME280;10775;42.678;26.324;2023-04-30T02:24:12;98358.72;;;10.15;91.51
21236;BME280;10775;42.678;26.324;2023-04-30T02:26:37;98359.53;;;10.17;90.04
21236;BME280;10775;42.678;26.324;2023-04-30T02:29:03;98360.53;;;10.13;91.11
21236;BME280;10775;42.678;26.324;2023-04-30T02:31:28;98368.28;;;10.16;91.09
21236;BME280;10775;42.678;26.324;2023-04-30T02:33:53;98362.47;;;10.03;92.77
21236;BME280;10775;42.678;26.324;2023-04-30T02:36:19;98366.13;;;9.96;90.84
21236;BME280;10775;42.678;26.324;2023-04-30T02:38:44;98362.91;;;9.85;88.24
21236;BME280;10775;42.678;26.324;2023-04-30T02:41:10;98370.84;;;9.78;91.76
21236;BME280;10775;42.678;26.324;2023-04-30T02:43:35;98360.44;;;9.77;93.80
21236;BME280;10775;42.678;26.324;2023-04-30T02:46:00;98363.88;;;9.79;93.63
21236;BME280;10775;42.678;26.324;2023-04-30T02:48:26;98368.72;;;9.96;95.23
21236;BME280;10775;42.678;26.324;2023-04-30T02:50:51;98372.78;;;10.09;94.44
21236;BME280;10775;42.678;26.324;2023-04-30T02:53:17;98373.59;;;10.11;90.64
21236;BME280;10775;42.678;26.324;2023-04-30T02:55:42;98365.69;;;10.14;93.61
21236;BME280;10775;42.678;26.324;2023-04-30T02:58:08;98373.34;;;10.22;92.53
21236;BME280;10775;42.678;26.324;2023-04-30T03:00:33;98377.91;;;10.14;89.96
21236;BME280;10775;42.678;26.324;2023-04-30T03:02:59;98372.06;;;10.02;92.80
21236;BME280;10775;42.678;26.324;2023-04-30T03:05:24;98375.63;;;10.00;90.86
21236;BME280;10775;42.678;26.324;2023-04-30T03:07:50;98371.25;;;9.99;91.46
21236;BME280;10775;42.678;26.324;2023-04-30T03:10:15;98368.56;;;10.04;92.88
21236;BME280;10775;42.678;26.324;2023-04-30T03:12:43;98374.78;;;9.98;88.90
21236;BME280;10775;42.678;26.324;2023-04-30T03:15:08;98379.50;;;9.80;89.68
21236;BME280;10775;42.678;26.324;2023-04-30T03:17:34;98372.75;;;9.72;91.63
21236;BME280;10775;42.678;26.324;2023-04-30T03:20:00;98375.22;;;9.78;94.94
21236;BME280;10775;42.678;26.324;2023-04-30T03:22:25;98374.19;;;9.85;92.22
21236;BME280;10775;42.678;26.324;2023-04-30T03:24:51;98382.72;;;9.92;94.67
21236;BME280;10775;42.678;26.324;2023-04-30T03:27:16;98383.44;;;10.00;94.05
21236;BME280;10775;42.678;26.324;2023-04-30T03:29:42;98388.63;;;10.01;93.41
21236;BME280;10775;42.678;26.324;2023-04-30T03:32:07;98386.00;;;10.01;92.02
21236;BME280;10775;42.678;26.324;2023-04-30T03:34:33;98391.38;;;9.95;87.54
21236;BME280;10775;42.678;26.324;2023-04-30T03:36:58;98396.88;;;9.82;93.14
21236;BME280;10775;42.678;26.324;2023-04-30T03:39:26;98398.78;;;9.75;90.54
21236;BME280;10775;42.678;26.324;2023-04-30T03:41:51;98393.31;;;9.87;91.76
21236;BME280;10775;42.678;26.324;2023-04-30T03:44:17;98396.53;;;9.97;90.27
21236;BME280;10775;42.678;26.324;2023-04-30T03:46:42;98385.19;;;9.99;92.23
21236;BME280;10775;42.678;26.324;2023-04-30T03:49:08;98402.41;;;10.08;92.98
21236;BME280;10775;42.678;26.324;2023-04-30T03:51:33;98399.00;;;10.05;91.01
21236;BME280;10775;42.678;26.324;2023-04-30T03:54:04;98401.75;;;9.98;91.11
21236;BME280;10775;42.678;26.324;2023-04-30T03:56:31;98402.59;;;9.99;88.84
21236;BME280;10775;42.678;26.324;2023-04-30T03:58:57;98400.16;;;9.91;86.88
21236;BME280;10775;42.678;26.324;2023-04-30T04:01:22;98397.25;;;9.65;86.80
21236;BME280;10775;42.678;26.324;2023-04-30T04:03:48;98391.72;;;9.80;90.56
21236;BME280;10775;42.678;26.324;2023-04-30T04:06:13;98396.59;;;9.95;92.02
21236;BME280;10775;42.678;26.324;2023-04-30T04:08:38;98397.34;;;10.00;85.35
21236;BME280;10775;42.678;26.324;2023-04-30T04:11:08;98395.63;;;9.99;88.98
21236;BME280;10775;42.678;26.324;2023-04-30T04:13:33;98402.81;;;9.90;87.66
21236;BME280;10775;42.678;26.324;2023-04-30T04:15:59;98392.66;;;9.76;86.33
21236;BME280;10775;42.678;26.324;2023-04-30T04:18:24;98400.91;;;9.96;89.01
21236;BME280;10775;42.678;26.324;2023-04-30T04:20:50;98397.13;;;10.10;91.72
21236;BME280;10775;42.678;26.324;2023-04-30T04:23:15;98396.84;;;10.23;89.10
21236;BME280;10775;42.678;26.324;2023-04-30T04:25:40;98404.81;;;10.17;86.85
21236;BME280;10775;42.678;26.324;2023-04-30T04:28:08;98409.41;;;10.08;89.24
21236;BME280;10775;42.678;26.324;2023-04-30T04:30:34;98409.94;;;10.22;90.31
21236;BME280;10775;42.678;26.324;2023-04-30T04:33:00;98407.22;;;10.27;89.15
21236;BME280;10775;42.678;26.324;2023-04-30T04:35:26;98413.91;;;10.40;84.51
21236;BME280;10775;42.678;26.324;2023-04-30T04:37:51;98414.13;;;10.31;85.61
21236;BME280;10775;42.678;26.324;2023-04-30T04:40:17;98418.75;;;10.18;84.37
21236;BME280;10775;42.678;26.324;2023-04-30T04:42:42;98416.91;;;10.21;90.11
21236;BME280;10775;42.678;26.324;2023-04-30T04:45:08;98416.75;;;10.31;89.52
21236;BME280;10775;42.678;26.324;2023-04-30T04:47:34;98413.34;;;10.26;87.73
21236;BME280;10775;42.678;26.324;2023-04-30T04:49:59;98411.59;;;10.26;89.25
21236;BME280;10775;42.678;26.324;2023-04-30T04:52:25;98416.94;;;10.20;88.20
21236;BME280;10775;42.678;26.324;2023-04-30T04:54:50;98413.25;;;10.30;87.08
21236;BME280;10775;42.678;26.324;2023-04-30T04:57:16;98415.22;;;10.19;86.36
21236;BME280;10775;42.678;26.324;2023-04-30T04:59:41;98413.31;;;10.29;85.45
21236;BME280;10775;42.678;26.324;2023-04-30T05:02:07;98411.19;;;10.44;88.51
21236;BME280;10775;42.678;26.324;2023-04-30T05:04:33;98409.31;;;10.50;84.32
21236;BME280;10775;42.678;26.324;2023-04-30T05:06:59;98417.69;;;10.64;87.51
21236;BME280;10775;42.678;26.324;2023-04-30T05:09:24;98411.25;;;10.77;86.40
21236;BME280;10775;42.678;26.324;2023-04-30T05:11:50;98413.22;;;11.03;82.42
21236;BME280;10775;42.678;26.324;2023-04-30T05:14:15;98406.44;;;11.29;82.23
21236;BME280;10775;42.678;26.324;2023-04-30T05:16:40;98404.19;;;11.48;82.44
21236;BME280;10775;42.678;26.324;2023-04-30T05:19:06;98405.78;;;11.83;78.35
21236;BME280;10775;42.678;26.324;2023-04-30T05:21:34;98416.97;;;11.90;73.83
21236;BME280;10775;42.678;26.324;2023-04-30T05:23:59;98414.84;;;12.31;78.67
21236;BME280;10775;42.678;26.324;2023-04-30T05:26:25;98409.69;;;12.56;73.56
21236;BME280;10775;42.678;26.324;2023-04-30T05:28:50;98417.50;;;12.57;74.15
21236;BME280;10775;42.678;26.324;2023-04-30T05:31:16;98412.56;;;13.01;75.14
21236;BME280;10775;42.678;26.324;2023-04-30T05:33:42;98413.47;;;13.27;74.41
21236;BME280;10775;42.678;26.324;2023-04-30T05:36:09;98408.25;;;13.51;72.50
21236;BME280;10775;42.678;26.324;2023-04-30T05:38:34;98413.91;;;13.63;69.92
21236;BME280;10775;42.678;26.324;2023-04-30T05:41:00;98413.81;;;13.66;70.00
21236;BME280;10775;42.678;26.324;2023-04-30T05:43:25;98423.19;;;13.74;67.08
21236;BME280;10775;42.678;26.324;2023-04-30T05:45:51;98417.00;;;13.98;70.69
21236;BME280;10775;42.678;26.324;2023-04-30T05:48:16;98415.63;;;14.11;66.03
21236;BME280;10775;42.678;26.324;2023-04-30T05:50:42;98415.09;;;14.25;68.25
21236;BME280;10775;42.678;26.324;2023-04-30T05:53:07;98422.31;;;14.42;66.25
21236;BME280;10775;42.678;26.324;2023-04-30T05:55:33;98420.88;;;14.57;65.71
21236;BME280;10775;42.678;26.324;2023-04-30T05:57:58;98426.78;;;14.62;65.82
21236;BME280;10775;42.678;26.324;2023-04-30T06:00:24;98409.81;;;14.25;61.10
21236;BME280;10775;42.678;26.324;2023-04-30T06:02:49;98417.25;;;14.38;65.21
21236;BME280;10775;42.678;26.324;2023-04-30T06:05:15;98421.75;;;14.57;60.67
21236;BME280;10775;42.678;26.324;2023-04-30T06:07:40;98428.03;;;14.52;63.69
21236;BME280;10775;42.678;26.324;2023-04-30T06:10:06;98431.91;;;14.43;62.06
21236;BME280;10775;42.678;26.324;2023-04-30T06:12:33;98429.09;;;14.48;57.87
21236;BME280;10775;42.678;26.324;2023-04-30T06:14:59;98429.81;;;14.53;59.15
21236;BME280;10775;42.678;26.324;2023-04-30T06:17:24;98425.63;;;14.91;60.57
21236;BME280;10775;42.678;26.324;2023-04-30T06:19:50;98432.28;;;15.20;61.18
21236;BME280;10775;42.678;26.324;2023-04-30T06:22:15;98430.16;;;15.29;58.33
21236;BME280;10775;42.678;26.324;2023-04-30T06:24:41;98430.56;;;15.60;58.85
21236;BME280;10775;42.678;26.324;2023-04-30T06:27:06;98432.06;;;15.86;59.24
21236;BME280;10775;42.678;26.324;2023-04-30T06:29:31;98423.81;;;16.13;59.11
21236;BME280;10775;42.678;26.324;2023-04-30T06:31:57;98418.66;;;15.91;55.47
21236;BME280;10775;42.678;26.324;2023-04-30T06:34:22;98424.34;;;15.82;55.20
21236;BME280;10775;42.678;26.324;2023-04-30T06:36:48;98423.00;;;16.49;57.20
21236;BME280;10775;42.678;26.324;2023-04-30T06:39:14;98415.50;;;17.80;56.19
21236;BME280;10775;42.678;26.324;2023-04-30T06:41:40;98406.56;;;19.39;50.63
21236;BME280;10775;42.678;26.324;2023-04-30T06:44:07;98410.00;;;19.10;48.15
21236;BME280;10775;42.678;26.324;2023-04-30T06:46:33;98410.06;;;18.79;48.78
21236;BME280;10775;42.678;26.324;2023-04-30T06:48:59;98406.59;;;19.08;48.72
21236;BME280;10775;42.678;26.324;2023-04-30T06:51:24;98411.41;;;19.46;45.68
21236;BME280;10775;42.678;26.324;2023-04-30T06:53:51;98406.91;;;20.47;45.60
21236;BME280;10775;42.678;26.324;2023-04-30T06:56:16;98406.06;;;21.66;41.53
21236;BME280;10775;42.678;26.324;2023-04-30T06:58:42;98413.91;;;22.56;40.03
21236;BME280;10775;42.678;26.324;2023-04-30T07:01:07;98409.97;;;22.25;38.45
21236;BME280;10775;42.678;26.324;2023-04-30T07:03:33;98398.97;;;22.29;39.63
21236;BME280;10775;42.678;26.324;2023-04-30T07:05:59;98410.00;;;21.74;41.94
21236;BME280;10775;42.678;26.324;2023-04-30T07:08:24;98410.59;;;22.03;41.43
21236;BME280;10775;42.678;26.324;2023-04-30T07:10:50;98407.88;;;21.53;39.61
21236;BME280;10775;42.678;26.324;2023-04-30T07:13:15;98405.38;;;21.24;41.33
21236;BME280;10775;42.678;26.324;2023-04-30T07:15:41;98403.56;;;20.16;43.37
21236;BME280;10775;42.678;26.324;2023-04-30T07:18:06;98413.06;;;20.48;45.56
21236;BME280;10775;42.678;26.324;2023-04-30T07:20:33;98405.56;;;20.69;44.54
21236;BME280;10775;42.678;26.324;2023-04-30T07:22:58;98398.72;;;21.70;42.68
21236;BME280;10775;42.678;26.324;2023-04-30T07:25:23;98400.25;;;22.24;38.86
21236;BME280;10775;42.678;26.324;2023-04-30T07:27:50;98396.41;;;21.53;40.06
21236;BME280;10775;42.678;26.324;2023-04-30T07:30:17;98402.19;;;21.32;41.28
21236;BME280;10775;42.678;26.324;2023-04-30T07:32:42;98404.25;;;21.80;41.09
21236;BME280;10775;42.678;26.324;2023-04-30T07:35:08;98405.81;;;21.95;40.36
21236;BME280;10775;42.678;26.324;2023-04-30T07:37:34;98407.13;;;21.51;40.01
21236;BME280;10775;42.678;26.324;2023-04-30T07:39:59;98405.31;;;21.77;41.58
21236;BME280;10775;42.678;26.324;2023-04-30T07:42:25;98405.84;;;22.69;39.00
21236;BME280;10775;42.678;26.324;2023-04-30T07:44:51;98409.63;;;22.77;38.24
21236;BME280;10775;42.678;26.324;2023-04-30T07:47:17;98414.41;;;22.37;38.65
21236;BME280;10775;42.678;26.324;2023-04-30T07:49:45;98412.50;;;22.13;40.83
21236;BME280;10775;42.678;26.324;2023-04-30T07:52:10;98411.06;;;21.84;40.70
21236;BME280;10775;42.678;26.324;2023-04-30T07:54:36;98409.16;;;20.68;42.62
21236;BME280;10775;42.678;26.324;2023-04-30T07:57:03;98413.19;;;20.32;43.50
21236;BME280;10775;42.678;26.324;2023-04-30T07:59:29;98401.72;;;21.40;42.42
21236;BME280;10775;42.678;26.324;2023-04-30T08:01:55;98406.13;;;22.03;40.05
21236;BME280;10775;42.678;26.324;2023-04-30T08:04:20;98410.88;;;22.36;39.90
21236;BME280;10775;42.678;26.324;2023-04-30T08:06:46;98406.97;;;22.77;40.73
21236;BME280;10775;42.678;26.324;2023-04-30T08:09:11;98405.94;;;23.15;38.49
21236;BME280;10775;42.678;26.324;2023-04-30T08:11:37;98405.13;;;23.26;37.46
21236;BME280;10775;42.678;26.324;2023-04-30T08:14:02;98399.63;;;23.63;36.87
21236;BME280;10775;42.678;26.324;2023-04-30T08:16:28;98393.91;;;23.56;37.44
21236;BME280;10775;42.678;26.324;2023-04-30T08:18:54;98405.53;;;23.44;36.98
21236;BME280;10775;42.678;26.324;2023-04-30T08:21:20;98399.59;;;23.40;37.06
21236;BME280;10775;42.678;26.324;2023-04-30T08:23:46;98397.03;;;23.39;37.83
21236;BME280;10775;42.678;26.324;2023-04-30T08:26:11;98395.47;;;23.36;37.52
21236;BME280;10775;42.678;26.324;2023-04-30T08:28:37;98389.44;;;23.46;36.47
21236;BME280;10775;42.678;26.324;2023-04-30T08:31:02;98393.31;;;23.53;36.19
21236;BME280;10775;42.678;26.324;2023-04-30T08:33:28;98391.09;;;23.35;37.23
21236;BME280;10775;42.678;26.324;2023-04-30T08:35:53;98395.06;;;22.94;37.33
21236;BME280;10775;42.678;26.324;2023-04-30T08:38:18;98394.94;;;23.20;38.13
21236;BME280;10775;42.678;26.324;2023-04-30T08:40:50;98393.34;;;23.17;37.84
21236;BME280;10775;42.678;26.324;2023-04-30T08:43:17;98394.94;;;23.20;37.77
21236;BME280;10775;42.678;26.324;2023-04-30T08:45:43;98387.66;;;22.39;37.22
21236;BME280;10775;42.678;26.324;2023-04-30T08:48:10;98392.81;;;22.03;40.10
21236;BME280;10775;42.678;26.324;2023-04-30T08:50:36;98396.03;;;22.93;38.71
21236;BME280;10775;42.678;26.324;2023-04-30T08:53:02;98387.09;;;23.30;37.72
21236;BME280;10775;42.678;26.324;2023-04-30T08:55:27;98385.69;;;23.71;35.92
21236;BME280;10775;42.678;26.324;2023-04-30T08:57:53;98390.50;;;23.54;36.77
21236;BME280;10775;42.678;26.324;2023-04-30T09:00:19;98382.66;;;23.53;36.10
21236;BME280;10775;42.678;26.324;2023-04-30T09:02:45;98378.50;;;23.49;36.08
21236;BME280;10775;42.678;26.324;2023-04-30T09:05:13;98371.53;;;23.81;35.83
21236;BME280;10775;42.678;26.324;2023-04-30T09:07:44;98379.66;;;24.02;36.68
21236;BME280;10775;42.678;26.324;2023-04-30T09:10:18;98372.91;;;22.70;36.97
21236;BME280;10775;42.678;26.324;2023-04-30T09:15:29;98385.56;;;23.03;37.93
21236;BME280;10775;42.678;26.324;2023-04-30T09:20:36;98370.34;;;23.16;37.23
21236;BME280;10775;42.678;26.324;2023-04-30T09:23:07;98370.25;;;23.40;37.23
21236;BME280;10775;42.678;26.324;2023-04-30T09:25:40;98371.03;;;23.07;37.25
21236;BME280;10775;42.678;26.324;2023-04-30T09:28:07;98364.25;;;21.81;39.20
21236;BME280;10775;42.678;26.324;2023-04-30T09:30:32;98365.94;;;21.69;40.38
21236;BME280;10775;42.678;26.324;2023-04-30T09:32:58;98372.00;;;21.84;41.19
21236;BME280;10775;42.678;26.324;2023-04-30T09:35:35;98365.59;;;21.36;40.54
21236;BME280;10775;42.678;26.324;2023-04-30T09:38:01;98372.06;;;21.06;41.68
21236;BME280;10775;42.678;26.324;2023-04-30T09:40:40;98359.94;;;20.62;41.38
21236;BME280;10775;42.678;26.324;2023-04-30T09:43:07;98358.56;;;20.56;42.08
21236;BME280;10775;42.678;26.324;2023-04-30T09:45:42;98361.28;;;20.55;42.65
21236;BME280;10775;42.678;26.324;2023-04-30T09:48:23;98352.06;;;20.33;42.61
21236;BME280;10775;42.678;26.324;2023-04-30T09:50:50;98351.06;;;20.49;43.92
21236;BME280;10775;42.678;26.324;2023-04-30T09:53:16;98348.94;;;20.54;44.26
21236;BME280;10775;42.678;26.324;2023-04-30T09:55:48;98340.19;;;21.70;41.92
21236;BME280;10775;42.678;26.324;2023-04-30T09:58:16;98333.94;;;22.69;40.11
21236;BME280;10775;42.678;26.324;2023-04-30T10:00:44;98335.66;;;22.81;39.60
21236;BME280;10775;42.678;26.324;2023-04-30T10:03:11;98341.31;;;22.65;38.95
21236;BME280;10775;42.678;26.324;2023-04-30T10:05:42;98337.75;;;22.53;38.75
21236;BME280;10775;42.678;26.324;2023-04-30T10:08:28;98330.19;;;21.74;41.16
21236;BME280;10775;42.678;26.324;2023-04-30T10:11:00;98332.59;;;21.89;42.54
21236;BME280;10775;42.678;26.324;2023-04-30T10:13:30;98327.84;;;21.82;40.15
21236;BME280;10775;42.678;26.324;2023-04-30T10:15:58;98323.41;;;22.06;41.06
21236;BME280;10775;42.678;26.324;2023-04-30T10:18:33;98326.06;;;22.43;40.48
21236;BME280;10775;42.678;26.324;2023-04-30T10:21:02;98326.50;;;22.00;41.64
21236;BME280;10775;42.678;26.324;2023-04-30T10:23:29;98319.88;;;21.18;41.91
21236;BME280;10775;42.678;26.324;2023-04-30T10:25:55;98329.53;;;20.53;44.00
21236;BME280;10775;42.678;26.324;2023-04-30T10:28:22;98331.03;;;20.30;45.30
21236;BME280;10775;42.678;26.324;2023-04-30T10:30:49;98328.50;;;20.41;45.03
21236;BME280;10775;42.678;26.324;2023-04-30T10:33:33;98330.13;;;20.71;45.55
21236;BME280;10775;42.678;26.324;2023-04-30T10:36:06;98327.00;;;20.92;44.50
21236;BME280;10775;42.678;26.324;2023-04-30T10:38:36;98326.25;;;21.15;44.33
21236;BME280;10775;42.678;26.324;2023-04-30T10:41:05;98321.47;;;21.08;43.70
21236;BME280;10775;42.678;26.324;2023-04-30T10:43:32;98320.31;;;20.99;42.73
21236;BME280;10775;42.678;26.324;2023-04-30T10:45:59;98330.75;;;20.75;44.12
21236;BME280;10775;42.678;26.324;2023-04-30T10:48:25;98332.03;;;20.69;43.78
21236;BME280;10775;42.678;26.324;2023-04-30T10:50:55;98324.66;;;20.60;44.81
21236;BME280;10775;42.678;26.324;2023-04-30T10:53:21;98329.47;;;20.68;44.62
21236;BME280;10775;42.678;26.324;2023-04-30T10:56:04;98325.06;;;20.94;44.33
21236;BME280;10775;42.678;26.324;2023-04-30T10:58:35;98324.88;;;21.35;44.17
21236;BME280;10775;42.678;26.324;2023-04-30T11:03:34;98315.97;;;21.49;43.21
21236;BME280;10775;42.678;26.324;2023-04-30T11:06:00;98320.31;;;21.63;44.29
21236;BME280;10775;42.678;26.324;2023-04-30T11:08:39;98322.00;;;21.77;43.15
21236;BME280;10775;42.678;26.324;2023-04-30T11:11:08;98313.59;;;21.70;44.06
21236;BME280;10775;42.678;26.324;2023-04-30T11:13:43;98316.50;;;21.54;43.05
21236;BME280;10775;42.678;26.324;2023-04-30T11:16:09;98321.28;;;21.49;43.45
21236;BME280;10775;42.678;26.324;2023-04-30T11:18:43;98310.53;;;21.38;44.24
21236;BME280;10775;42.678;26.324;2023-04-30T11:21:10;98315.41;;;21.31;44.72
21236;BME280;10775;42.678;26.324;2023-04-30T11:23:39;98316.81;;;21.49;43.52
21236;BME280;10775;42.678;26.324;2023-04-30T11:26:06;98317.47;;;21.40;43.88
21236;BME280;10775;42.678;26.324;2023-04-30T11:28:32;98312.13;;;21.27;46.28
21236;BME280;10775;42.678;26.324;2023-04-30T11:31:00;98310.84;;;21.20;45.20
21236;BME280;10775;42.678;26.324;2023-04-30T11:33:28;98316.69;;;21.13;44.85
21236;BME280;10775;42.678;26.324;2023-04-30T11:35:55;98323.50;;;21.30;44.51
21236;BME280;10775;42.678;26.324;2023-04-30T11:38:25;98310.53;;;21.25;44.50
21236;BME280;10775;42.678;26.324;2023-04-30T11:40:51;98310.00;;;20.94;44.68
21236;BME280;10775;42.678;26.324;2023-04-30T11:43:27;98311.22;;;20.76;45.07
21236;BME280;10775;42.678;26.324;2023-04-30T11:46:14;98302.00;;;20.81;45.16
21236;BME280;10775;42.678;26.324;2023-04-30T11:48:43;98312.94;;;20.77;45.76
21236;BME280;10775;42.678;26.324;2023-04-30T11:51:23;98296.69;;;20.81;45.64
21236;BME280;10775;42.678;26.324;2023-04-30T11:53:50;98301.91;;;21.21;45.25
21236;BME280;10775;42.678;26.324;2023-04-30T11:56:20;98297.44;;;21.73;44.08
21236;BME280;10775;42.678;26.324;2023-04-30T11:58:47;98291.84;;;21.89;43.73
21236;BME280;10775;42.678;26.324;2023-04-30T12:01:13;98286.44;;;22.14;43.60
21236;BME280;10775;42.678;26.324;2023-04-30T12:03:49;98286.41;;;22.27;43.49
21236;BME280;10775;42.678;26.324;2023-04-30T12:06:23;98285.41;;;22.04;42.43
21236;BME280;10775;42.678;26.324;2023-04-30T12:08:48;98282.97;;;21.26;44.02
21236;BME280;10775;42.678;26.324;2023-04-30T12:13:56;98282.34;;;21.22;44.53
21236;BME280;10775;42.678;26.324;2023-04-30T12:16:23;98286.94;;;21.20;44.74
21236;BME280;10775;42.678;26.324;2023-04-30T12:18:49;98291.50;;;21.05;45.43
21236;BME280;10775;42.678;26.324;2023-04-30T12:21:16;98305.16;;;20.61;47.64
21236;BME280;10775;42.678;26.324;2023-04-30T12:23:43;98304.31;;;20.19;48.67
21236;BME280;10775;42.678;26.324;2023-04-30T12:26:09;98302.66;;;20.04;50.51
21236;BME280;10775;42.678;26.324;2023-04-30T12:28:35;98299.78;;;19.80;51.45
21236;BME280;10775;42.678;26.324;2023-04-30T12:31:01;98302.38;;;19.67;51.65
21236;BME280;10775;42.678;26.324;2023-04-30T12:33:31;98302.53;;;19.78;51.91
21236;BME280;10775;42.678;26.324;2023-04-30T12:35:56;98300.16;;;19.73;53.45
21236;BME280;10775;42.678;26.324;2023-04-30T12:38:24;98303.50;;;19.77;54.53
21236;BME280;10775;42.678;26.324;2023-04-30T12:40:50;98302.91;;;19.58;53.24
21236;BME280;10775;42.678;26.324;2023-04-30T12:43:16;98304.22;;;19.50;54.07
21236;BME280;10775;42.678;26.324;2023-04-30T12:48:12;98302.38;;;19.67;54.11
21236;BME280;10775;42.678;26.324;2023-04-30T12:50:37;98298.88;;;20.08;51.94
21236;BME280;10775;42.678;26.324;2023-04-30T12:53:07;98309.25;;;20.25;51.45
21236;BME280;10775;42.678;26.324;2023-04-30T12:55:33;98300.19;;;20.15;55.75
21236;BME280;10775;42.678;26.324;2023-04-30T13:00:46;98289.28;;;19.49;57.89
21236;BME280;10775;42.678;26.324;2023-04-30T13:03:12;98289.44;;;19.61;57.45
21236;BME280;10775;42.678;26.324;2023-04-30T13:05:39;98288.03;;;19.55;58.26
21236;BME280;10775;42.678;26.324;2023-04-30T13:08:05;98284.75;;;19.51;58.56
21236;BME280;10775;42.678;26.324;2023-04-30T13:10:32;98281.72;;;19.43;55.96
21236;BME280;10775;42.678;26.324;2023-04-30T13:12:58;98282.00;;;19.39;57.71
21236;BME280;10775;42.678;26.324;2023-04-30T13:15:24;98274.25;;;19.36;58.01
21236;BME280;10775;42.678;26.324;2023-04-30T13:17:49;98274.34;;;19.34;56.49